Time,TemperatureF,DewpointF,PressureIn,WindDirection,WindDirectionDegrees,WindSpeedMPH,WindSpeedGustMPH,Humidity,HourlyPrecipIn,Conditions,Clouds,dailyrainin,SoftwareType,DateUTC
2013-01-16 00:00:00,32.7,30.4,30.43,SW,221,0.0,0.0,91,0.00,,,0.00,Wunderground v.1.15,2013-01-16 08:00:00,
2013-01-16 00:05:00,32.9,30.6,30.44,SW,221,0.0,0.0,91,0.00,,,0.00,Wunderground v.1.15,2013-01-16 08:05:00,
2013-01-16 00:15:00,33.0,30.9,30.44,SW,221,0.0,0.0,92,0.00,,,0.00,Wunderground v.1.15,2013-01-16 08:15:00,
2013-01-16 00:20:00,32.9,30.6,30.44,SW,221,0.0,0.0,91,0.00,,,0.00,Wunderground v.1.15,2013-01-16 08:20:00,
2013-01-16 00:25:00,32.8,30.7,30.44,SW,221,0.0,0.0,92,0.00,,,0.00,Wunderground v.1.15,2013-01-16 08:25:00,
2013-01-16 00:30:00,32.8,30.7,30.44,SW,221,0.0,0.0,92,0.00,,,0.00,Wunderground v.1.15,2013-01-16 08:30:00,
2013-01-16 00:35:00,32.6,30.5,30.44,SW,221,0.0,0.0,92,0.00,,,0.00,Wunderground v.1.15,2013-01-16 08:35:00,
2013-01-16 00:45:00,32.5,30.4,30.44,SW,221,0.0,0.0,92,0.00,,,0.00,Wunderground v.1.15,2013-01-16 08:45:00,
2013-01-16 00:50:00,32.6,30.5,30.44,SW,221,0.0,0.0,92,0.00,,,0.00,Wunderground v.1.15,2013-01-16 08:50:00,
2013-01-16 00:55:00,32.1,30.0,30.44,SW,221,0.0,0.0,92,0.00,,,0.00,Wunderground v.1.15,2013-01-16 08:55:00,
2013-01-16 01:00:00,31.9,29.8,30.44,SW,221,0.0,0.0,92,0.00,,,0.00,Wunderground v.1.15,2013-01-16 09:00:00,
2013-01-16 01:05:00,31.7,29.6,30.45,SW,221,0.0,0.0,92,0.00,,,0.00,Wunderground v.1.15,2013-01-16 09:05:00,
2013-01-16 01:15:00,31.6,29.8,30.45,SW,221,0.0,0.0,93,0.00,,,0.00,Wunderground v.1.15,2013-01-16 09:15:00,
2013-01-16 01:20:00,31.7,29.9,30.45,SW,221,0.0,0.0,93,0.00,,,0.00,Wunderground v.1.15,2013-01-16 09:20:00,
2013-01-16 01:25:00,32.0,30.2,30.45,SW,221,0.0,0.0,93,0.00,,,0.00,Wunderground v.1.15,2013-01-16 09:25:00,
2013-01-16 01:30:00,32.0,30.2,30.45,SW,221,0.0,0.0,93,0.00,,,0.00,Wunderground v.1.15,2013-01-16 09:30:00,
2013-01-16 01:40:00,32.0,30.2,30.45,SW,221,0.0,0.0,93,0.00,,,0.00,Wunderground v.1.15,2013-01-16 09:40:00,
2013-01-16 01:45:00,31.8,30.0,30.45,SW,221,0.0,0.0,93,0.00,,,0.00,Wunderground v.1.15,2013-01-16 09:45:00,
2013-01-16 01:50:00,31.2,29.4,30.45,SW,221,0.0,0.0,93,0.00,,,0.00,Wunderground v.1.15,2013-01-16 09:50:00,
2013-01-16 01:55:00,30.8,29.0,30.45,SW,221,0.0,0.0,93,0.00,,,0.00,Wunderground v.1.15,2013-01-16 09:55:00,
2013-01-16 02:00:00,30.8,29.0,30.46,SW,221,0.0,0.0,93,0.00,,,0.00,Wunderground v.1.15,2013-01-16 10:00:00,
2013-01-16 02:10:00,31.9,30.4,30.45,SW,221,0.0,0.0,94,0.00,,,0.00,Wunderground v.1.15,2013-01-16 10:10:00,
2013-01-16 02:15:00,32.1,30.6,30.45,SW,221,0.0,0.0,94,0.00,,,0.00,Wunderground v.1.15,2013-01-16 10:15:00,
2013-01-16 02:20:00,31.7,29.9,30.45,SW,221,0.0,0.0,93,0.00,,,0.00,Wunderground v.1.15,2013-01-16 10:20:00,
2013-01-16 02:25:00,31.0,29.2,30.45,SW,221,0.0,0.0,93,0.00,,,0.00,Wunderground v.1.15,2013-01-16 10:25:00,
2013-01-16 02:30:00,30.7,28.9,30.45,SW,221,0.0,0.0,93,0.00,,,0.00,Wunderground v.1.15,2013-01-16 10:30:00,
2013-01-16 02:40:00,30.8,29.3,30.45,SW,221,0.0,0.0,94,0.00,,,0.00,Wunderground v.1.15,2013-01-16 10:40:00,
2013-01-16 02:50:00,30.7,29.2,30.45,SW,221,0.0,0.0,94,0.00,,,0.00,Wunderground v.1.15,2013-01-16 10:50:00,
2013-01-16 02:55:00,31.1,29.6,30.45,SW,221,0.0,0.0,94,0.00,,,0.00,Wunderground v.1.15,2013-01-16 10:55:00,
2013-01-16 03:05:00,31.9,30.6,30.45,SW,221,0.0,0.0,95,0.00,,,0.00,Wunderground v.1.15,2013-01-16 11:05:00,
2013-01-16 03:10:00,31.7,30.2,30.46,SW,221,0.0,0.0,94,0.00,,,0.00,Wunderground v.1.15,2013-01-16 11:10:00,
2013-01-16 03:15:00,31.4,29.9,30.45,SW,221,0.0,0.0,94,0.00,,,0.00,Wunderground v.1.15,2013-01-16 11:15:00,
2013-01-16 03:20:00,31.2,29.7,30.45,SW,221,0.0,0.0,94,0.00,,,0.00,Wunderground v.1.15,2013-01-16 11:20:00,
2013-01-16 03:30:00,31.2,29.7,30.45,SW,221,0.0,0.0,94,0.00,,,0.00,Wunderground v.1.15,2013-01-16 11:30:00,
2013-01-16 03:35:00,32.0,30.7,30.45,SW,221,0.0,0.0,95,0.00,,,0.00,Wunderground v.1.15,2013-01-16 11:35:00,
2013-01-16 03:40:00,32.0,30.7,30.45,SW,221,0.0,0.0,95,0.00,,,0.00,Wunderground v.1.15,2013-01-16 11:40:00,
2013-01-16 03:45:00,31.4,29.9,30.45,SW,221,0.0,0.0,94,0.00,,,0.00,Wunderground v.1.15,2013-01-16 11:45:00,
2013-01-16 03:50:00,30.8,29.3,30.45,SW,221,0.0,0.0,94,0.00,,,0.00,Wunderground v.1.15,2013-01-16 11:50:00,
2013-01-16 04:00:00,31.4,30.1,30.44,SW,221,0.0,0.0,95,0.00,,,0.00,Wunderground v.1.15,2013-01-16 12:00:00,
2013-01-16 04:05:00,32.2,30.9,30.44,SW,221,0.0,0.0,95,0.00,,,0.00,Wunderground v.1.15,2013-01-16 12:05:00,
2013-01-16 04:15:00,33.0,32.0,30.44,SW,221,0.0,0.0,96,0.00,,,0.00,Wunderground v.1.15,2013-01-16 12:15:00,
2013-01-16 04:20:00,33.2,31.9,30.43,SW,221,0.0,0.0,95,0.00,,,0.00,Wunderground v.1.15,2013-01-16 12:20:00,
2013-01-16 04:25:00,33.0,31.7,30.43,SW,221,0.0,0.0,95,0.00,,,0.00,Wunderground v.1.15,2013-01-16 12:25:00,
2013-01-16 04:30:00,33.1,31.8,30.43,SW,221,0.0,0.0,95,0.00,,,0.00,Wunderground v.1.15,2013-01-16 12:30:00,
2013-01-16 04:35:00,33.1,31.8,30.43,SW,221,0.0,0.0,95,0.00,,,0.00,Wunderground v.1.15,2013-01-16 12:35:00,
2013-01-16 04:45:00,32.5,31.2,30.43,SW,221,0.0,0.0,95,0.00,,,0.00,Wunderground v.1.15,2013-01-16 12:45:00,
2013-01-16 04:50:00,32.4,31.1,30.44,SW,221,0.0,0.0,95,0.00,,,0.00,Wunderground v.1.15,2013-01-16 12:50:00,
2013-01-16 04:55:00,32.3,31.0,30.44,SW,221,0.0,0.0,95,0.00,,,0.00,Wunderground v.1.15,2013-01-16 12:55:00,
2013-01-16 05:00:00,32.3,31.0,30.43,SW,221,0.0,0.0,95,0.00,,,0.00,Wunderground v.1.15,2013-01-16 13:00:00,
2013-01-16 05:05:00,32.1,30.8,30.43,SW,221,0.0,0.0,95,0.00,,,0.00,Wunderground v.1.15,2013-01-16 13:05:00,
2013-01-16 05:15:00,32.4,31.1,30.43,SW,221,0.0,0.0,95,0.00,,,0.00,Wunderground v.1.15,2013-01-16 13:15:00,
2013-01-16 05:20:00,32.1,30.8,30.43,SW,221,0.0,0.0,95,0.00,,,0.00,Wunderground v.1.15,2013-01-16 13:20:00,
2013-01-16 05:25:00,31.8,30.3,30.43,SW,221,0.0,0.0,94,0.00,,,0.00,Wunderground v.1.15,2013-01-16 13:25:00,
2013-01-16 05:30:00,31.7,30.4,30.42,SW,221,0.0,0.0,95,0.00,,,0.00,Wunderground v.1.15,2013-01-16 13:30:00,
2013-01-16 05:35:00,31.8,30.5,30.41,SW,221,0.0,0.0,95,0.00,,,0.00,Wunderground v.1.15,2013-01-16 13:35:00,
2013-01-16 05:45:00,32.5,31.2,30.42,SW,221,0.0,0.0,95,0.00,,,0.00,Wunderground v.1.15,2013-01-16 13:45:00,
2013-01-16 05:50:00,32.4,31.1,30.42,SW,221,0.0,0.0,95,0.00,,,0.00,Wunderground v.1.15,2013-01-16 13:50:00,
2013-01-16 05:55:00,32.5,31.2,30.42,SW,221,0.0,0.0,95,0.00,,,0.00,Wunderground v.1.15,2013-01-16 13:55:00,
2013-01-16 06:00:00,32.8,31.5,30.42,SW,221,0.0,0.0,95,0.00,,,0.00,Wunderground v.1.15,2013-01-16 14:00:00,
2013-01-16 06:05:00,32.9,31.6,30.42,SW,221,0.0,0.0,95,0.00,,,0.00,Wunderground v.1.15,2013-01-16 14:05:00,
2013-01-16 06:15:00,33.4,32.1,30.42,SW,221,0.0,0.0,95,0.00,,,0.00,Wunderground v.1.15,2013-01-16 14:15:00,
2013-01-16 06:20:00,33.5,32.2,30.41,SW,221,0.0,0.0,95,0.00,,,0.00,Wunderground v.1.15,2013-01-16 14:20:00,
2013-01-16 06:25:00,33.5,32.2,30.41,SW,221,0.0,0.0,95,0.00,,,0.00,Wunderground v.1.15,2013-01-16 14:25:00,
2013-01-16 06:30:00,33.5,32.2,30.41,SW,221,0.0,0.0,95,0.00,,,0.00,Wunderground v.1.15,2013-01-16 14:30:00,
2013-01-16 06:35:00,33.5,32.2,30.41,SW,221,0.0,0.0,95,0.00,,,0.00,Wunderground v.1.15,2013-01-16 14:35:00,
2013-01-16 06:40:00,33.0,31.5,30.41,SW,221,0.0,0.0,94,0.00,,,0.00,Wunderground v.1.15,2013-01-16 14:40:00,
2013-01-16 06:50:00,31.9,30.6,30.41,SW,221,0.0,0.0,95,0.00,,,0.00,Wunderground v.1.15,2013-01-16 14:50:00,
2013-01-16 06:55:00,32.1,30.8,30.41,SW,221,0.0,0.0,95,0.00,,,0.00,Wunderground v.1.15,2013-01-16 14:55:00,
2013-01-16 07:00:00,32.2,30.9,30.41,SW,221,0.0,0.0,95,0.00,,,0.00,Wunderground v.1.15,2013-01-16 15:00:00,
2013-01-16 07:05:00,32.3,31.0,30.41,SW,221,0.0,0.0,95,0.00,,,0.00,Wunderground v.1.15,2013-01-16 15:05:00,
2013-01-16 07:15:00,32.2,30.9,30.41,SW,221,0.0,0.0,95,0.00,,,0.00,Wunderground v.1.15,2013-01-16 15:15:00,
2013-01-16 07:25:00,32.1,30.8,30.41,SW,221,0.0,0.0,95,0.00,,,0.00,Wunderground v.1.15,2013-01-16 15:25:00,
2013-01-16 07:30:00,32.1,30.8,30.42,SW,225,0.0,0.0,95,0.00,,,0.00,Wunderground v.1.15,2013-01-16 15:30:00,
2013-01-16 07:35:00,32.3,31.0,30.42,WSW,253,0.0,0.0,95,0.00,,,0.00,Wunderground v.1.15,2013-01-16 15:35:00,
2013-01-16 07:40:00,32.5,31.5,30.42,East,101,0.0,0.0,96,0.00,,,0.00,Wunderground v.1.15,2013-01-16 15:40:00,
2013-01-16 07:50:00,32.9,31.6,30.42,ESE,103,0.0,0.0,95,0.00,,,0.00,Wunderground v.1.15,2013-01-16 15:50:00,
2013-01-16 07:55:00,33.2,31.9,30.42,ESE,103,0.0,0.0,95,0.00,,,0.00,Wunderground v.1.15,2013-01-16 15:55:00,
2013-01-16 08:00:00,33.4,32.1,30.43,ESE,105,0.0,0.0,95,0.00,,,0.00,Wunderground v.1.15,2013-01-16 16:00:00,
2013-01-16 08:05:00,33.8,32.5,30.42,ESE,105,0.0,0.0,95,0.00,,,0.00,Wunderground v.1.15,2013-01-16 16:05:00,
2013-01-16 08:10:00,34.1,32.8,30.42,East,101,0.0,0.0,95,0.00,,,0.00,Wunderground v.1.15,2013-01-16 16:10:00,
2013-01-16 08:20:00,34.5,33.2,30.43,East,96,0.0,0.0,95,0.00,,,0.01,Wunderground v.1.15,2013-01-16 16:20:00,
2013-01-16 08:25:00,34.7,33.4,30.42,East,96,0.0,0.0,95,0.00,,,0.01,Wunderground v.1.15,2013-01-16 16:25:00,
2013-01-16 08:30:00,35.1,33.8,30.43,ESE,109,0.0,0.0,95,0.00,,,0.01,Wunderground v.1.15,2013-01-16 16:30:00,
2013-01-16 08:35:00,35.3,34.0,30.43,SE,130,0.0,0.0,95,0.00,,,0.01,Wunderground v.1.15,2013-01-16 16:35:00,
2013-01-16 08:40:00,35.6,34.0,30.43,SE,130,0.0,0.0,94,0.00,,,0.01,Wunderground v.1.15,2013-01-16 16:40:00,
2013-01-16 08:50:00,36.5,34.9,30.43,SE,130,0.0,0.0,94,0.00,,,0.01,Wunderground v.1.15,2013-01-16 16:50:00,
2013-01-16 08:55:00,37.0,35.4,30.43,SE,130,0.0,0.0,94,0.00,,,0.01,Wunderground v.1.15,2013-01-16 16:55:00,
2013-01-16 09:00:00,37.7,36.1,30.43,SE,130,0.0,0.0,94,0.00,,,0.01,Wunderground v.1.15,2013-01-16 17:00:00,
2013-01-16 09:05:00,38.4,36.6,30.44,SE,130,0.0,0.0,93,0.00,,,0.01,Wunderground v.1.15,2013-01-16 17:05:00,
2013-01-16 09:15:00,39.8,37.7,30.44,SE,130,0.0,0.0,92,0.00,,,0.01,Wunderground v.1.15,2013-01-16 17:15:00,
2013-01-16 09:20:00,40.6,38.2,30.44,SE,130,0.0,0.0,91,0.00,,,0.01,Wunderground v.1.15,2013-01-16 17:20:00,
2013-01-16 09:25:00,41.2,38.2,30.44,NE,42,1.0,4.0,89,0.00,,,0.01,Wunderground v.1.15,2013-01-16 17:25:00,
2013-01-16 09:30:00,41.5,37.9,30.44,NE,37,2.0,3.0,87,0.00,,,0.01,Wunderground v.1.15,2013-01-16 17:30:00,
2013-01-16 09:40:00,42.0,37.5,30.44,ENE,66,4.0,4.0,84,0.00,,,0.01,Wunderground v.1.15,2013-01-16 17:40:00,
2013-01-16 09:45:00,42.4,37.9,30.44,NE,44,3.0,4.0,84,0.00,,,0.01,Wunderground v.1.15,2013-01-16 17:45:00,
2013-01-16 09:50:00,42.6,37.8,30.44,NE,38,4.0,4.0,83,0.00,,,0.01,Wunderground v.1.15,2013-01-16 17:50:00,
2013-01-16 09:55:00,42.9,37.8,30.43,NE,39,4.0,5.0,82,0.00,,,0.01,Wunderground v.1.15,2013-01-16 17:55:00,
2013-01-16 10:00:00,43.3,38.2,30.43,NE,34,5.0,5.0,82,0.00,,,0.01,Wunderground v.1.15,2013-01-16 18:00:00,
2013-01-16 10:10:00,44.3,38.5,30.43,NNE,32,4.0,4.0,80,0.00,,,0.01,Wunderground v.1.15,2013-01-16 18:10:00,
2013-01-16 10:15:00,45.1,39.0,30.43,NNE,32,2.0,4.0,79,0.00,,,0.01,Wunderground v.1.15,2013-01-16 18:15:00,
2013-01-16 10:20:00,45.4,38.6,30.43,NE,35,2.0,2.0,77,0.00,,,0.01,Wunderground v.1.15,2013-01-16 18:20:00,
2013-01-16 10:25:00,45.5,39.0,30.42,NE,38,3.0,3.0,78,0.00,,,0.01,Wunderground v.1.15,2013-01-16 18:25:00,
2013-01-16 10:30:00,45.6,38.1,30.42,NE,38,2.0,2.0,75,0.00,,,0.01,Wunderground v.1.15,2013-01-16 18:30:00,
2013-01-16 10:40:00,47.2,38.3,30.42,NE,42,0.0,0.0,71,0.00,,,0.01,Wunderground v.1.15,2013-01-16 18:40:00,
2013-01-16 10:45:00,47.5,38.6,30.42,NE,37,0.0,0.0,71,0.00,,,0.01,Wunderground v.1.15,2013-01-16 18:45:00,
2013-01-16 10:50:00,47.4,37.4,30.42,NE,38,2.0,4.0,68,0.00,,,0.01,Wunderground v.1.15,2013-01-16 18:50:00,
2013-01-16 10:55:00,47.3,37.6,30.41,NNE,30,3.0,4.0,69,0.00,,,0.01,Wunderground v.1.15,2013-01-16 18:55:00,
2013-01-16 11:05:00,47.3,37.3,30.41,NNE,21,3.0,5.0,68,0.00,,,0.01,Wunderground v.1.15,2013-01-16 19:05:00,
2013-01-16 11:10:00,47.5,37.5,30.40,NNE,28,4.0,4.0,68,0.00,,,0.01,Wunderground v.1.15,2013-01-16 19:10:00,
2013-01-16 11:15:00,47.9,38.6,30.40,NNE,31,4.0,4.0,70,0.00,,,0.01,Wunderground v.1.15,2013-01-16 19:15:00,
2013-01-16 11:20:00,48.3,38.6,30.40,ENE,57,3.0,3.0,69,0.00,,,0.01,Wunderground v.1.15,2013-01-16 19:20:00,
2013-01-16 11:25:00,48.7,38.2,30.40,NE,54,2.0,3.0,67,0.00,,,0.01,Wunderground v.1.15,2013-01-16 19:25:00,
2013-01-16 11:35:00,49.5,39.0,30.39,NE,50,2.0,5.0,67,0.00,,,0.01,Wunderground v.1.15,2013-01-16 19:35:00,
2013-01-16 11:40:00,50.0,37.9,30.39,NE,35,3.0,5.0,63,0.00,,,0.01,Wunderground v.1.15,2013-01-16 19:40:00,
2013-01-16 11:45:00,50.2,37.3,30.38,ENE,61,3.0,5.0,61,0.00,,,0.01,Wunderground v.1.15,2013-01-16 19:45:00,
2013-01-16 11:55:00,50.9,37.1,30.38,East,87,2.0,3.0,59,0.00,,,0.01,Wunderground v.1.15,2013-01-16 19:55:00,
2013-01-16 12:00:00,51.2,37.8,30.38,East,95,2.0,5.0,60,0.00,,,0.01,Wunderground v.1.15,2013-01-16 20:00:00,
2013-01-16 12:05:00,51.4,37.5,30.37,ESE,113,1.0,5.0,59,0.00,,,0.01,Wunderground v.1.15,2013-01-16 20:05:00,
2013-01-16 12:10:00,51.8,40.0,30.37,ENE,65,1.0,3.0,64,0.00,,,0.01,Wunderground v.1.15,2013-01-16 20:10:00,
2013-01-16 12:15:00,52.0,39.4,30.36,NE,48,2.0,3.0,62,0.00,,,0.01,Wunderground v.1.15,2013-01-16 20:15:00,
2013-01-16 12:25:00,52.1,38.6,30.36,NW,309,1.0,5.0,60,0.00,,,0.01,Wunderground v.1.15,2013-01-16 20:25:00,
2013-01-16 12:30:00,51.9,39.3,30.35,NNE,17,3.0,3.0,62,0.00,,,0.01,Wunderground v.1.15,2013-01-16 20:30:00,
2013-01-16 12:35:00,52.1,39.1,30.35,NNE,16,3.0,3.0,61,0.00,,,0.01,Wunderground v.1.15,2013-01-16 20:35:00,
2013-01-16 12:40:00,52.2,39.6,30.35,NNE,33,3.0,4.0,62,0.00,,,0.01,Wunderground v.1.15,2013-01-16 20:40:00,
2013-01-16 12:45:00,52.2,39.6,30.35,NNE,31,3.0,4.0,62,0.00,,,0.01,Wunderground v.1.15,2013-01-16 20:45:00,
2013-01-16 12:55:00,52.7,39.6,30.34,NE,34,2.0,4.0,61,0.00,,,0.01,Wunderground v.1.15,2013-01-16 20:55:00,
2013-01-16 13:00:00,53.1,40.0,30.34,NE,40,1.0,3.0,61,0.00,,,0.01,Wunderground v.1.15,2013-01-16 21:00:00,
2013-01-16 13:05:00,53.2,39.7,30.34,NNE,29,2.0,3.0,60,0.00,,,0.01,Wunderground v.1.15,2013-01-16 21:05:00,
2013-01-16 13:15:00,53.6,39.6,30.33,NNE,32,1.0,1.0,59,0.00,,,0.01,Wunderground v.1.15,2013-01-16 21:15:00,
2013-01-16 13:20:00,53.9,40.8,30.32,NNE,32,1.0,1.0,61,0.00,,,0.01,Wunderground v.1.15,2013-01-16 21:20:00,
2013-01-16 13:25:00,54.1,39.6,30.32,NNE,29,1.0,1.0,58,0.00,,,0.01,Wunderground v.1.15,2013-01-16 21:25:00,
2013-01-16 13:30:00,54.2,40.2,30.32,NNE,32,1.0,1.0,59,0.00,,,0.01,Wunderground v.1.15,2013-01-16 21:30:00,
2013-01-16 13:35:00,54.3,39.4,30.32,NNE,32,0.0,1.0,57,0.00,,,0.01,Wunderground v.1.15,2013-01-16 21:35:00,
2013-01-16 13:45:00,55.1,40.1,30.31,NE,34,1.0,1.0,57,0.00,,,0.01,Wunderground v.1.15,2013-01-16 21:45:00,
2013-01-16 13:50:00,55.4,40.4,30.31,NE,34,1.0,1.0,57,0.00,,,0.01,Wunderground v.1.15,2013-01-16 21:50:00,
2013-01-16 13:55:00,55.6,40.6,30.31,NE,34,1.0,1.0,57,0.00,,,0.01,Wunderground v.1.15,2013-01-16 21:55:00,
2013-01-16 14:00:00,55.6,40.1,30.31,NE,34,0.0,0.0,56,0.00,,,0.01,Wunderground v.1.15,2013-01-16 22:00:00,
2013-01-16 14:10:00,55.9,40.9,30.31,NE,34,0.0,0.0,57,0.00,,,0.01,Wunderground v.1.15,2013-01-16 22:10:00,
2013-01-16 14:15:00,56.3,41.7,30.31,NE,34,0.0,1.0,58,0.00,,,0.01,Wunderground v.1.15,2013-01-16 22:15:00,
2013-01-16 14:20:00,56.7,41.6,30.31,NE,34,0.0,0.0,57,0.00,,,0.01,Wunderground v.1.15,2013-01-16 22:20:00,
2013-01-16 14:25:00,56.9,40.9,30.31,NE,38,0.0,0.0,55,0.00,,,0.01,Wunderground v.1.15,2013-01-16 22:25:00,
2013-01-16 14:35:00,56.8,41.3,30.31,ESE,118,1.0,1.0,56,0.00,,,0.01,Wunderground v.1.15,2013-01-16 22:35:00,
2013-01-16 14:40:00,56.7,41.2,30.31,East,96,1.0,1.0,56,0.00,,,0.01,Wunderground v.1.15,2013-01-16 22:40:00,
2013-01-16 14:45:00,57.2,41.6,30.31,East,97,0.0,1.0,56,0.00,,,0.01,Wunderground v.1.15,2013-01-16 22:45:00,
2013-01-16 14:55:00,57.4,40.9,30.31,ESE,118,0.0,0.0,54,0.00,,,0.01,Wunderground v.1.15,2013-01-16 22:55:00,
2013-01-16 15:00:00,57.5,41.4,30.31,SSE,161,0.0,0.0,55,0.00,,,0.01,Wunderground v.1.15,2013-01-16 23:00:00,
2013-01-16 15:05:00,57.4,41.4,30.30,SE,136,0.0,0.0,55,0.00,,,0.01,Wunderground v.1.15,2013-01-16 23:05:00,
2013-01-16 15:10:00,57.5,41.0,30.31,SE,138,0.0,0.0,54,0.00,,,0.01,Wunderground v.1.15,2013-01-16 23:10:00,
2013-01-16 15:20:00,57.7,40.2,30.30,SE,136,0.0,0.0,52,0.00,,,0.01,Wunderground v.1.15,2013-01-16 23:20:00,
2013-01-16 15:25:00,57.5,40.0,30.30,SE,136,0.0,0.0,52,0.00,,,0.01,Wunderground v.1.15,2013-01-16 23:25:00,
2013-01-16 15:30:00,57.4,39.4,30.31,SE,132,0.0,0.0,51,0.00,,,0.01,Wunderground v.1.15,2013-01-16 23:30:00,
2013-01-16 15:35:00,57.4,39.9,30.31,SE,132,0.0,0.0,52,0.00,,,0.01,Wunderground v.1.15,2013-01-16 23:35:00,
2013-01-16 15:40:00,57.5,40.5,30.31,SE,132,0.0,0.0,53,0.00,,,0.01,Wunderground v.1.15,2013-01-16 23:40:00,
2013-01-16 15:50:00,57.5,40.5,30.30,SE,132,0.0,0.0,53,0.00,,,0.01,Wunderground v.1.15,2013-01-16 23:50:00,
2013-01-16 15:55:00,57.6,40.6,30.30,SE,132,0.0,0.0,53,0.00,,,0.01,Wunderground v.1.15,2013-01-16 23:55:00,
2013-01-16 16:00:00,57.5,40.0,30.30,SE,132,0.0,0.0,52,0.00,,,0.01,Wunderground v.1.15,2013-01-17 00:00:00,
2013-01-16 16:05:00,57.6,40.1,30.30,SE,132,0.0,0.0,52,0.00,,,0.01,Wunderground v.1.15,2013-01-17 00:05:00,
2013-01-16 16:15:00,57.3,39.8,30.30,SE,132,0.0,0.0,52,0.00,,,0.01,Wunderground v.1.15,2013-01-17 00:15:00,
2013-01-16 16:20:00,57.2,39.7,30.30,SSE,167,0.0,0.0,52,0.00,,,0.01,Wunderground v.1.15,2013-01-17 00:20:00,
2013-01-16 16:25:00,57.0,39.5,30.29,ESE,110,0.0,0.0,52,0.00,,,0.01,Wunderground v.1.15,2013-01-17 00:25:00,
2013-01-16 16:30:00,57.0,40.0,30.29,ESE,113,0.0,0.0,53,0.00,,,0.01,Wunderground v.1.15,2013-01-17 00:30:00,
2013-01-16 16:35:00,57.3,39.8,30.29,ENE,65,0.0,0.0,52,0.00,,,0.01,Wunderground v.1.15,2013-01-17 00:35:00,
2013-01-16 16:45:00,56.6,40.6,30.29,South,175,1.0,4.0,55,0.00,,,0.01,Wunderground v.1.15,2013-01-17 00:45:00,
2013-01-16 16:50:00,54.5,39.6,30.29,South,188,3.0,3.0,57,0.00,,,0.01,Wunderground v.1.15,2013-01-17 00:50:00,
2013-01-16 16:55:00,53.4,37.6,30.29,South,182,3.0,3.0,55,0.00,,,0.01,Wunderground v.1.15,2013-01-17 00:55:00,
2013-01-16 17:00:00,53.0,37.7,30.29,SSW,202,2.0,3.0,56,0.00,,,0.01,Wunderground v.1.15,2013-01-17 01:00:00,
2013-01-16 17:05:00,52.9,37.6,30.29,SSW,205,2.0,3.0,56,0.00,,,0.01,Wunderground v.1.15,2013-01-17 01:05:00,
2013-01-16 17:15:00,52.3,37.5,30.29,SSW,205,2.0,4.0,57,0.00,,,0.01,Wunderground v.1.15,2013-01-17 01:15:00,
2013-01-16 17:20:00,51.7,37.4,30.29,SSW,205,1.0,1.0,58,0.00,,,0.01,Wunderground v.1.15,2013-01-17 01:20:00,
2013-01-16 17:25:00,50.8,37.8,30.29,SSW,205,0.0,1.0,61,0.00,,,0.01,Wunderground v.1.15,2013-01-17 01:25:00,
2013-01-16 17:30:00,49.1,37.4,30.29,SSW,205,0.0,0.0,64,0.00,,,0.01,Wunderground v.1.15,2013-01-17 01:30:00,
2013-01-16 17:40:00,47.7,37.3,30.29,SSW,205,0.0,0.0,67,0.00,,,0.01,Wunderground v.1.15,2013-01-17 01:40:00,
2013-01-16 17:45:00,47.4,37.0,30.29,SSW,205,0.0,0.0,67,0.00,,,0.01,Wunderground v.1.15,2013-01-17 01:45:00,
2013-01-16 17:50:00,47.5,37.1,30.30,SSW,205,0.0,0.0,67,0.00,,,0.01,Wunderground v.1.15,2013-01-17 01:50:00,
2013-01-16 17:55:00,47.3,36.9,30.29,SSW,205,0.0,0.0,67,0.00,,,0.01,Wunderground v.1.15,2013-01-17 01:55:00,
2013-01-16 18:00:00,47.0,36.6,30.29,SSW,205,0.0,0.0,67,0.00,,,0.01,Wunderground v.1.15,2013-01-17 02:00:00,
2013-01-16 18:10:00,46.7,37.8,30.29,SSW,205,0.0,0.0,71,0.00,,,0.01,Wunderground v.1.15,2013-01-17 02:10:00,
2013-01-16 18:15:00,46.2,37.3,30.29,SSW,205,0.0,0.0,71,0.00,,,0.01,Wunderground v.1.15,2013-01-17 02:15:00,
2013-01-16 18:20:00,45.6,36.7,30.29,SSW,205,0.0,0.0,71,0.00,,,0.01,Wunderground v.1.15,2013-01-17 02:20:00,
2013-01-16 18:25:00,45.1,36.6,30.29,SSW,205,0.0,0.0,72,0.00,,,0.01,Wunderground v.1.15,2013-01-17 02:25:00,
2013-01-16 18:35:00,44.0,36.2,30.29,SSW,205,0.0,0.0,74,0.00,,,0.01,Wunderground v.1.15,2013-01-17 02:35:00,
2013-01-16 18:40:00,43.6,36.2,30.29,SSW,205,0.0,0.0,75,0.00,,,0.01,Wunderground v.1.15,2013-01-17 02:40:00,
2013-01-16 18:45:00,43.0,36.0,30.29,SSW,205,0.0,0.0,76,0.00,,,0.01,Wunderground v.1.15,2013-01-17 02:45:00,
2013-01-16 18:50:00,42.3,35.9,30.29,SSW,205,0.0,0.0,78,0.00,,,0.01,Wunderground v.1.15,2013-01-17 02:50:00,
2013-01-16 18:55:00,42.0,36.3,30.29,SSW,205,0.0,0.0,80,0.00,,,0.01,Wunderground v.1.15,2013-01-17 02:55:00,
2013-01-16 19:10:00,41.9,36.8,30.29,SSW,205,0.0,0.0,82,0.00,,,0.01,Wunderground v.1.15,2013-01-17 03:10:00,
2013-01-16 19:15:00,42.0,36.9,30.29,SSW,205,0.0,0.0,82,0.00,,,0.01,Wunderground v.1.15,2013-01-17 03:15:00,
2013-01-16 19:20:00,41.8,36.4,30.29,SSW,205,0.0,0.0,81,0.00,,,0.01,Wunderground v.1.15,2013-01-17 03:20:00,
2013-01-16 19:30:00,41.0,35.9,30.29,SSW,205,0.0,0.0,82,0.00,,,0.01,Wunderground v.1.15,2013-01-17 03:30:00,
2013-01-16 19:35:00,40.6,35.5,30.28,SSW,205,0.0,0.0,82,0.00,,,0.01,Wunderground v.1.15,2013-01-17 03:35:00,
2013-01-16 19:40:00,40.3,35.5,30.28,SSW,205,0.0,0.0,83,0.00,,,0.01,Wunderground v.1.15,2013-01-17 03:40:00,
2013-01-16 19:45:00,40.0,35.6,30.28,SSW,205,0.0,0.0,84,0.00,,,0.01,Wunderground v.1.15,2013-01-17 03:45:00,
2013-01-16 19:50:00,39.7,35.6,30.29,SSW,205,0.0,0.0,85,0.00,,,0.01,Wunderground v.1.15,2013-01-17 03:50:00,
2013-01-16 20:00:00,39.4,35.3,30.28,SSW,205,0.0,0.0,85,0.00,,,0.01,Wunderground v.1.15,2013-01-17 04:00:00,
2013-01-16 20:05:00,39.0,34.9,30.28,SSW,205,0.0,0.0,85,0.00,,,0.01,Wunderground v.1.15,2013-01-17 04:05:00,
2013-01-16 20:10:00,38.6,34.5,30.28,SSW,205,0.0,0.0,85,0.00,,,0.01,Wunderground v.1.15,2013-01-17 04:10:00,
2013-01-16 20:20:00,38.3,34.8,30.28,SSW,205,0.0,0.0,87,0.00,,,0.01,Wunderground v.1.15,2013-01-17 04:20:00,
2013-01-16 20:25:00,38.5,35.3,30.28,SSW,205,0.0,0.0,88,0.00,,,0.01,Wunderground v.1.15,2013-01-17 04:25:00,
2013-01-16 20:30:00,38.7,35.5,30.28,SSW,205,0.0,0.0,88,0.00,,,0.01,Wunderground v.1.15,2013-01-17 04:30:00,
2013-01-16 20:35:00,38.6,35.4,30.28,SSW,205,0.0,0.0,88,0.00,,,0.01,Wunderground v.1.15,2013-01-17 04:35:00,
2013-01-16 20:40:00,38.0,34.5,30.28,SSW,205,0.0,0.0,87,0.00,,,0.01,Wunderground v.1.15,2013-01-17 04:40:00,
2013-01-16 20:50:00,37.5,34.3,30.28,SSW,205,0.0,0.0,88,0.00,,,0.01,Wunderground v.1.15,2013-01-17 04:50:00,
2013-01-16 20:55:00,37.4,34.2,30.28,SSW,205,0.0,0.0,88,0.00,,,0.01,Wunderground v.1.15,2013-01-17 04:55:00,
2013-01-16 21:05:00,36.8,33.6,30.28,SSW,205,0.0,0.0,88,0.00,,,0.01,Wunderground v.1.15,2013-01-17 05:05:00,
2013-01-16 21:10:00,36.5,33.6,30.28,SSW,205,0.0,0.0,89,0.00,,,0.01,Wunderground v.1.15,2013-01-17 05:10:00,
2013-01-16 21:15:00,36.5,33.6,30.28,SSW,205,0.0,0.0,89,0.00,,,0.01,Wunderground v.1.15,2013-01-17 05:15:00,
2013-01-16 21:20:00,36.7,34.0,30.28,SSW,205,0.0,0.0,90,0.00,,,0.01,Wunderground v.1.15,2013-01-17 05:20:00,
2013-01-16 21:25:00,36.8,34.1,30.28,SSW,205,0.0,0.0,90,0.00,,,0.01,Wunderground v.1.15,2013-01-17 05:25:00,
2013-01-16 21:30:00,36.6,33.9,30.28,SSW,205,0.0,0.0,90,0.00,,,0.01,Wunderground v.1.15,2013-01-17 05:30:00,
2013-01-16 21:35:00,36.4,33.7,30.28,SSW,205,0.0,0.0,90,0.00,,,0.01,Wunderground v.1.15,2013-01-17 05:35:00,
2013-01-16 21:40:00,36.2,33.5,30.28,SSW,205,0.0,0.0,90,0.00,,,0.01,Wunderground v.1.15,2013-01-17 05:40:00,
2013-01-16 21:45:00,35.8,33.2,30.28,SSW,205,0.0,0.0,90,0.00,,,0.01,Wunderground v.1.15,2013-01-17 05:45:00,
2013-01-16 21:50:00,35.7,33.3,30.28,SSW,205,0.0,0.0,91,0.00,,,0.01,Wunderground v.1.15,2013-01-17 05:50:00,
2013-01-16 21:55:00,35.7,33.3,30.27,SSW,205,0.0,0.0,91,0.00,,,0.01,Wunderground v.1.15,2013-01-17 05:55:00,
2013-01-16 22:00:00,35.5,33.1,30.27,SSW,205,0.0,0.0,91,0.00,,,0.01,Wunderground v.1.15,2013-01-17 06:00:00,
2013-01-16 22:10:00,35.2,33.1,30.27,SSW,205,0.0,0.0,92,0.00,,,0.01,Wunderground v.1.15,2013-01-17 06:10:00,
2013-01-16 22:15:00,35.6,33.5,30.28,SSW,205,0.0,0.0,92,0.00,,,0.01,Wunderground v.1.15,2013-01-17 06:15:00,
2013-01-16 22:20:00,36.1,34.3,30.27,SSW,205,0.0,0.0,93,0.00,,,0.01,Wunderground v.1.15,2013-01-17 06:20:00,
2013-01-16 22:25:00,36.0,33.6,30.27,SSW,205,0.0,0.0,91,0.00,,,0.01,Wunderground v.1.15,2013-01-17 06:25:00,
2013-01-16 22:35:00,35.2,32.8,30.27,SSW,205,0.0,0.0,91,0.00,,,0.01,Wunderground v.1.15,2013-01-17 06:35:00,
2013-01-16 22:40:00,35.5,33.4,30.27,SSW,205,0.0,0.0,92,0.00,,,0.01,Wunderground v.1.15,2013-01-17 06:40:00,
2013-01-16 22:45:00,35.4,33.3,30.27,SSW,205,0.0,0.0,92,0.00,,,0.01,Wunderground v.1.15,2013-01-17 06:45:00,
2013-01-16 22:50:00,35.1,33.0,30.28,SSW,205,0.0,0.0,92,0.00,,,0.01,Wunderground v.1.15,2013-01-17 06:50:00,
2013-01-16 22:55:00,34.7,32.3,30.28,SSW,205,0.0,0.0,91,0.00,,,0.01,Wunderground v.1.15,2013-01-17 06:55:00,
2013-01-16 23:05:00,34.0,31.9,30.28,SSW,205,0.0,0.0,92,0.00,,,0.01,Wunderground v.1.15,2013-01-17 07:05:00,
2013-01-16 23:10:00,34.0,31.9,30.28,SSW,205,0.0,0.0,92,0.00,,,0.01,Wunderground v.1.15,2013-01-17 07:10:00,
2013-01-16 23:15:00,34.1,32.0,30.28,SSW,205,0.0,0.0,92,0.00,,,0.01,Wunderground v.1.15,2013-01-17 07:15:00,
2013-01-16 23:20:00,34.0,31.9,30.28,SSW,205,0.0,0.0,92,0.00,,,0.01,Wunderground v.1.15,2013-01-17 07:20:00,
2013-01-16 23:25:00,33.9,32.1,30.28,SSW,205,0.0,0.0,93,0.00,,,0.01,Wunderground v.1.15,2013-01-17 07:25:00,
2013-01-16 23:35:00,35.0,33.4,30.28,SSW,205,0.0,0.0,94,0.00,,,0.01,Wunderground v.1.15,2013-01-17 07:35:00,
2013-01-16 23:40:00,35.1,33.3,30.28,SSW,205,0.0,0.0,93,0.00,,,0.01,Wunderground v.1.15,2013-01-17 07:40:00,
2013-01-16 23:45:00,34.9,33.1,30.28,SSW,205,0.0,0.0,93,0.00,,,0.01,Wunderground v.1.15,2013-01-17 07:45:00,
2013-01-16 23:55:00,34.3,32.5,30.28,SSW,205,0.0,0.0,93,0.00,,,0.01,Wunderground v.1.15,2013-01-17 07:55:00,